Terminal Aerodrome Forecast
Issued by NWS

Home | Current Version | Previous Version | Text Only | Print | Product List | Glossary On
Versions: 1 2 3 4 5 6 7 8 9 10 11 12 13
560
FTUS42 TJSJ 190520
TAFJPS
TAF
TJPS 190520Z 1906/2006 07005KT P6SM FEW030 SCT120
     FM191500 13010KT P6SM SCT030
     FM191700 14015G20KT P6SM BKN040
     FM192000 07007KT P6SM FEW030=

USA.gov is the U.S. government's official web portal to all federal, state and local government web resources and services.